Time;durP1;ratioP1;P1;durP2;ratioP2;P2;SDS_P1;SDS_P2;PMS_P1;PMS_P2;Temp;Humidity;BMP_temperature;BMP_pressure;BME280_temperature;BME280_humidity;BME280_pressure;Samples;Min_cycle;Max_cycle;Signal;HPM_P1;HPM_P2
2021/10/08 00:02:22;;;;;;;4.50;3.60;;;9.10;99.90;;;;;;5057226;28;20444;-76
2021/10/08 00:05:08;;;;;;;9.63;5.07;;;9.00;99.90;;;;;;5059710;28;21446;-77
2021/10/08 00:07:54;;;;;;;5.40;4.80;;;8.80;99.90;;;;;;5070890;28;20201;-77
2021/10/08 00:10:41;;;;;;;5.60;4.43;;;8.90;99.90;;;;;;5067609;28;20300;-76
2021/10/08 00:13:26;;;;;;;4.85;4.43;;;8.80;99.90;;;;;;5061564;28;20220;-77
2021/10/08 00:16:13;;;;;;;5.05;4.28;;;8.90;99.90;;;;;;5072975;28;20206;-77
2021/10/08 00:18:59;;;;;;;5.57;4.75;;;8.90;99.90;;;;;;5071965;28;20206;-77
2021/10/08 00:21:45;;;;;;;7.20;4.40;;;8.80;99.90;;;;;;5072451;28;20326;-76
2021/10/08 00:24:30;;;;;;;6.88;4.45;;;8.80;99.90;;;;;;5068297;28;20242;-77
2021/10/08 00:27:18;;;;;;;5.40;4.38;;;8.80;99.90;;;;;;5070706;28;20212;-76
2021/10/08 00:30:04;;;;;;;8.53;4.13;;;8.80;99.90;;;;;;5073374;28;20231;-77
2021/10/08 00:32:50;;;;;;;5.80;5.20;;;8.80;99.90;;;;;;5071969;28;20553;-77
2021/10/08 00:35:35;;;;;;;7.00;4.63;;;8.70;99.90;;;;;;5068613;28;20569;-77
2021/10/08 00:38:21;;;;;;;6.63;4.80;;;8.70;99.90;;;;;;5070485;28;20438;-77
2021/10/08 00:41:07;;;;;;;7.20;4.47;;;8.80;99.90;;;;;;5072617;28;20559;-78
2021/10/08 00:43:55;;;;;;;6.30;4.40;;;8.70;99.90;;;;;;5070733;28;20223;-77
2021/10/08 00:46:42;;;;;;;5.00;4.03;;;8.70;99.90;;;;;;5071601;28;20446;-77
2021/10/08 00:49:27;;;;;;;4.93;3.73;;;8.80;99.90;;;;;;5072679;28;21262;-77
2021/10/08 00:52:13;;;;;;;5.10;4.50;;;8.70;99.90;;;;;;5063072;28;20582;-77
2021/10/08 00:54:58;;;;;;;6.93;4.00;;;8.60;99.90;;;;;;5067356;28;20478;-77
2021/10/08 00:57:46;;;;;;;5.00;4.00;;;8.50;99.90;;;;;;5072162;28;20202;-77
2021/10/08 01:00:33;;;;;;;10.35;4.07;;;8.60;99.90;;;;;;5070105;28;20206;-77
2021/10/08 01:03:20;;;;;;;4.18;3.75;;;8.70;99.90;;;;;;5052918;28;20258;-77
2021/10/08 01:06:06;;;;;;;4.40;4.00;;;8.80;99.90;;;;;;5063766;28;20209;-77
2021/10/08 01:08:52;;;;;;;5.97;3.58;;;8.70;99.90;;;;;;5063117;28;20329;-77
2021/10/08 01:11:38;;;;;;;4.35;3.95;;;8.60;99.90;;;;;;5066728;28;20190;-77
2021/10/08 01:14:23;;;;;;;5.70;3.65;;;8.50;99.90;;;;;;5072628;28;20218;-78
2021/10/08 01:17:17;;;;;;;5.33;3.80;;;8.50;99.90;;;;;;5071051;28;20201;-77
2021/10/08 01:20:06;;;;;;;7.72;3.40;;;8.40;99.90;;;;;;5068971;28;20452;-77
2021/10/08 01:22:57;;;;;;;4.30;3.83;;;8.40;99.90;;;;;;5065574;28;20649;-77
2021/10/08 01:25:43;;;;;;;5.80;3.72;;;8.40;99.90;;;;;;5072793;28;20204;-77
2021/10/08 01:28:28;;;;;;;5.57;3.53;;;8.50;99.90;;;;;;5064699;28;20207;-77
2021/10/08 01:31:14;;;;;;;4.47;3.20;;;8.60;99.90;;;;;;5072473;28;20458;-77
2021/10/08 01:34:00;;;;;;;3.65;3.13;;;8.70;99.90;;;;;;5070642;28;20743;-77
2021/10/08 01:36:47;;;;;;;7.25;3.60;;;8.70;99.90;;;;;;5071504;28;20573;-77
2021/10/08 01:39:32;;;;;;;6.43;3.80;;;8.50;99.90;;;;;;5066511;28;20762;-77
2021/10/08 01:42:18;;;;;;;15.13;3.60;;;8.60;99.90;;;;;;5057916;28;20450;-77
2021/10/08 01:45:05;;;;;;;9.48;3.83;;;8.60;99.90;;;;;;5072189;28;20284;-77
2021/10/08 01:47:51;;;;;;;6.20;4.30;;;8.70;99.90;;;;;;5061928;28;20196;-76
2021/10/08 01:50:36;;;;;;;6.05;3.42;;;8.60;99.90;;;;;;5068749;28;20525;-77
2021/10/08 01:53:23;;;;;;;6.93;2.73;;;8.40;99.90;;;;;;5070203;28;20671;-77
2021/10/08 01:56:09;;;;;;;4.80;3.55;;;8.50;99.90;;;;;;5071317;28;20529;-77
2021/10/08 01:58:55;;;;;;;5.20;3.10;;;8.50;99.90;;;;;;5061223;28;20202;-77
2021/10/08 02:01:41;;;;;;;4.80;3.40;;;8.60;99.90;;;;;;5070751;28;20200;-77
2021/10/08 02:04:27;;;;;;;5.70;3.53;;;8.70;99.90;;;;;;5071630;28;20473;-77
2021/10/08 02:07:12;;;;;;;3.70;2.90;;;8.70;99.90;;;;;;5069647;28;20532;-77
2021/10/08 02:09:59;;;;;;;5.20;3.37;;;8.50;99.90;;;;;;5070715;28;20633;-77
2021/10/08 02:12:45;;;;;;;5.80;3.20;;;8.50;99.90;;;;;;5068927;28;20447;-77
2021/10/08 02:15:30;;;;;;;5.95;3.35;;;8.40;99.90;;;;;;5064207;28;20201;-77
2021/10/08 02:18:16;;;;;;;4.20;3.40;;;8.40;99.90;;;;;;5070410;28;20209;-77
2021/10/08 02:21:02;;;;;;;3.95;3.30;;;8.40;99.90;;;;;;5064304;28;20454;-76
2021/10/08 02:23:48;;;;;;;7.18;3.10;;;8.50;99.90;;;;;;5059721;28;20292;-77
2021/10/08 02:26:35;;;;;;;4.30;3.28;;;8.60;99.90;;;;;;5061769;28;20252;-78
2021/10/08 02:29:21;;;;;;;4.63;3.65;;;8.60;99.90;;;;;;5062842;28;20205;-77
2021/10/08 02:32:07;;;;;;;6.80;2.88;;;8.60;99.90;;;;;;5071515;28;20196;-77
2021/10/08 02:34:52;;;;;;;3.08;2.70;;;8.60;99.90;;;;;;5063359;28;20717;-77
2021/10/08 02:37:38;;;;;;;5.53;2.83;;;8.60;99.90;;;;;;5067340;28;20250;-77
2021/10/08 02:40:24;;;;;;;4.60;3.00;;;8.60;99.90;;;;;;5065068;28;20321;-77
2021/10/08 02:43:11;;;;;;;4.40;2.97;;;8.70;99.90;;;;;;5061656;28;20483;-77
2021/10/08 02:45:57;;;;;;;6.35;2.70;;;8.70;99.90;;;;;;5070199;28;20467;-77
2021/10/08 02:48:43;;;;;;;5.50;3.20;;;8.60;99.90;;;;;;5065338;28;20238;-77
2021/10/08 02:51:28;;;;;;;4.70;3.33;;;8.70;99.90;;;;;;5065059;28;20569;-77
2021/10/08 02:54:14;;;;;;;6.93;3.27;;;8.70;99.90;;;;;;5053231;28;20483;-77
2021/10/08 02:56:59;;;;;;;3.03;2.63;;;8.70;99.90;;;;;;5069241;28;20416;-77
2021/10/08 02:59:46;;;;;;;6.25;3.45;;;8.60;99.90;;;;;;5069862;28;20965;-78
2021/10/08 03:02:32;;;;;;;5.07;3.97;;;8.60;99.90;;;;;;5065922;28;20208;-77
2021/10/08 03:05:18;;;;;;;5.38;3.65;;;8.50;99.90;;;;;;5068874;28;20864;-77
2021/10/08 03:08:04;;;;;;;6.18;5.57;;;8.50;99.90;;;;;;5070669;28;20207;-77
2021/10/08 03:10:50;;;;;;;4.65;3.03;;;8.60;99.90;;;;;;5069897;28;20225;-76
2021/10/08 03:13:35;;;;;;;4.50;3.17;;;8.50;99.90;;;;;;5071122;28;20225;-77
2021/10/08 03:16:22;;;;;;;4.38;3.67;;;8.40;99.90;;;;;;5066360;28;20858;-78
2021/10/08 03:19:08;;;;;;;5.90;3.72;;;8.40;99.90;;;;;;5068537;28;20205;-77
2021/10/08 03:21:54;;;;;;;4.93;3.67;;;8.40;99.90;;;;;;5068640;28;20241;-77
2021/10/08 03:24:39;;;;;;;4.78;3.50;;;8.50;99.90;;;;;;5065311;28;20476;-78
2021/10/08 03:27:26;;;;;;;3.65;2.80;;;8.60;99.90;;;;;;5070750;28;20274;-77
2021/10/08 03:30:14;;;;;;;4.90;3.83;;;8.60;99.90;;;;;;5069680;28;20245;-78
2021/10/08 03:33:01;;;;;;;6.65;3.95;;;8.50;99.90;;;;;;5062363;28;20725;-77
2021/10/08 03:35:47;;;;;;;4.75;3.58;;;8.60;99.90;;;;;;5066478;28;20906;-76
2021/10/08 03:38:34;;;;;;;11.60;4.37;;;8.60;99.90;;;;;;5068270;28;20353;-77
2021/10/08 03:41:20;;;;;;;4.80;3.87;;;8.70;99.90;;;;;;5068654;28;20461;-77
2021/10/08 03:44:06;;;;;;;5.40;3.87;;;8.80;99.90;;;;;;5060326;28;20477;-77
2021/10/08 03:46:54;;;;;;;6.53;4.00;;;8.90;99.90;;;;;;5070730;28;20428;-78
2021/10/08 03:49:42;;;;;;;7.30;3.75;;;8.80;99.90;;;;;;5071119;28;20440;-78
2021/10/08 03:52:29;;;;;;;5.50;3.63;;;8.70;99.90;;;;;;5057347;28;20705;-77
2021/10/08 03:55:15;;;;;;;12.37;3.90;;;8.60;99.90;;;;;;5073762;28;20466;-77
2021/10/08 03:58:00;;;;;;;10.27;3.50;;;8.70;99.90;;;;;;5074289;28;20417;-77
2021/10/08 04:00:46;;;;;;;3.90;3.50;;;8.70;99.90;;;;;;5072630;28;20251;-77
2021/10/08 04:03:31;;;;;;;5.80;4.32;;;8.70;99.90;;;;;;5073595;28;20505;-77
2021/10/08 04:06:19;;;;;;;5.97;3.65;;;8.70;99.90;;;;;;5078766;22;21338;-78
2021/10/08 04:09:08;;;;;;;5.53;4.05;;;8.60;99.90;;;;;;5052782;28;20209;-78
2021/10/08 04:11:54;;;;;;;6.38;3.60;;;8.60;99.90;;;;;;5050822;28;20299;-77
2021/10/08 04:14:40;;;;;;;4.90;4.00;;;8.70;99.90;;;;;;5051192;28;20279;-78
2021/10/08 04:17:26;;;;;;;6.80;4.03;;;8.60;99.90;;;;;;5044053;28;21056;-78
2021/10/08 04:20:12;;;;;;;5.30;3.60;;;8.50;99.90;;;;;;5056373;28;20246;-78
2021/10/08 04:22:59;;;;;;;7.32;4.10;;;8.50;99.90;;;;;;5046878;28;20676;-77
2021/10/08 04:25:45;;;;;;;4.80;4.05;;;8.50;99.90;;;;;;5056056;28;20205;-77
2021/10/08 04:28:31;;;;;;;10.75;3.97;;;8.70;99.90;;;;;;5035633;28;20248;-77
2021/10/08 04:31:17;;;;;;;4.07;3.50;;;8.70;99.90;;;;;;5047475;28;20235;-76
2021/10/08 04:34:03;;;;;;;6.10;3.40;;;8.80;99.90;;;;;;5052010;28;20440;-77
2021/10/08 04:36:48;;;;;;;10.80;3.27;;;8.80;99.90;;;;;;5056163;28;21015;-78
2021/10/08 04:39:35;;;;;;;5.00;3.80;;;8.80;99.90;;;;;;5048321;28;20603;-77
2021/10/08 04:42:21;;;;;;;8.47;3.43;;;8.90;99.90;;;;;;5048150;28;20444;-78
2021/10/08 04:45:07;;;;;;;6.43;3.73;;;8.80;99.90;;;;;;5052328;28;20469;-78
2021/10/08 04:47:53;;;;;;;5.20;3.93;;;8.90;99.90;;;;;;5050966;28;20487;-78
2021/10/08 04:50:39;;;;;;;13.23;3.70;;;8.90;99.90;;;;;;5047263;28;20520;-78
2021/10/08 04:53:25;;;;;;;4.40;3.43;;;8.90;99.90;;;;;;5053435;28;20451;-78
2021/10/08 04:56:12;;;;;;;8.27;5.03;;;8.80;99.90;;;;;;5054874;28;20611;-78
2021/10/08 04:58:58;;;;;;;5.05;3.50;;;8.90;99.90;;;;;;5054317;28;20203;-77
2021/10/08 05:01:43;;;;;;;8.73;3.43;;;8.90;99.90;;;;;;5045726;28;20742;-78
2021/10/08 05:04:30;;;;;;;7.40;4.10;;;8.90;99.90;;;;;;5041711;28;20449;-78
2021/10/08 05:07:15;;;;;;;9.27;4.88;;;8.90;99.90;;;;;;5048527;28;20346;-78
2021/10/08 05:10:01;;;;;;;4.30;3.90;;;8.90;99.90;;;;;;5054670;28;20203;-77
2021/10/08 05:12:48;;;;;;;4.17;2.90;;;9.00;99.90;;;;;;5046716;28;20208;-78
2021/10/08 05:15:34;;;;;;;6.67;4.80;;;9.00;99.90;;;;;;5048462;28;20451;-78
2021/10/08 05:18:20;;;;;;;4.60;4.10;;;9.00;99.90;;;;;;5047830;28;20454;-78
2021/10/08 05:21:06;;;;;;;6.65;3.60;;;8.90;99.90;;;;;;5054202;28;20522;-77
2021/10/08 05:23:51;;;;;;;5.97;4.00;;;8.70;99.90;;;;;;5053362;28;20215;-78
2021/10/08 05:26:37;;;;;;;4.82;3.40;;;8.70;99.90;;;;;;5053419;28;20477;-76
2021/10/08 05:29:24;;;;;;;5.97;3.55;;;8.60;99.90;;;;;;5053726;28;20205;-78
2021/10/08 05:32:10;;;;;;;6.53;3.75;;;8.70;99.90;;;;;;5051706;28;20239;-78
2021/10/08 05:34:56;;;;;;;5.50;3.67;;;8.60;99.90;;;;;;5053550;28;20208;-78
2021/10/08 05:37:41;;;;;;;7.40;4.22;;;8.60;99.90;;;;;;5055304;28;20469;-77
2021/10/08 05:40:27;;;;;;;8.10;3.93;;;8.50;99.90;;;;;;5050582;28;20210;-78
2021/10/08 05:43:12;;;;;;;7.03;3.30;;;8.50;99.90;;;;;;5053055;28;20523;-77
2021/10/08 05:45:59;;;;;;;7.18;3.65;;;8.60;99.90;;;;;;5045961;28;20578;-78
2021/10/08 05:48:45;;;;;;;4.93;3.65;;;8.60;99.90;;;;;;5044250;28;20330;-77
2021/10/08 05:51:32;;;;;;;4.07;3.67;;;8.70;99.90;;;;;;5041539;28;20214;-77
2021/10/08 05:54:18;;;;;;;6.15;3.95;;;8.60;99.90;;;;;;5042564;28;20199;-76
2021/10/08 05:57:05;;;;;;;5.50;4.77;;;8.50;99.90;;;;;;5051778;28;20303;-77
2021/10/08 05:59:50;;;;;;;4.88;3.63;;;8.70;99.90;;;;;;5042515;28;20973;-77
2021/10/08 06:02:37;;;;;;;5.47;3.50;;;8.70;99.90;;;;;;5043650;28;20203;-76
2021/10/08 06:05:23;;;;;;;7.97;4.27;;;8.70;99.90;;;;;;5039148;28;21084;-77
2021/10/08 06:08:10;;;;;;;4.57;3.90;;;8.70;99.90;;;;;;5050059;28;20455;-76
2021/10/08 06:10:55;;;;;;;6.87;4.03;;;8.70;99.90;;;;;;5049538;28;20274;-77
2021/10/08 06:13:41;;;;;;;7.60;4.00;;;8.80;99.90;;;;;;5046956;28;20503;-77
2021/10/08 06:16:27;;;;;;;5.97;4.43;;;8.80;99.90;;;;;;5049867;28;20471;-77
2021/10/08 06:19:14;;;;;;;5.57;3.80;;;8.80;99.90;;;;;;5050708;28;20461;-77
2021/10/08 06:21:59;;;;;;;6.60;3.67;;;9.00;99.90;;;;;;5052436;28;20418;-77
2021/10/08 06:24:45;;;;;;;8.13;3.90;;;9.00;99.90;;;;;;5051469;28;20459;-77
2021/10/08 06:27:31;;;;;;;8.63;4.10;;;9.20;99.90;;;;;;5045387;28;20846;-76
2021/10/08 06:30:16;;;;;;;4.37;3.33;;;9.30;99.90;;;;;;5046511;28;20206;-76
2021/10/08 06:33:02;;;;;;;4.63;3.50;;;9.30;99.90;;;;;;5050516;28;20441;-78
2021/10/08 06:35:49;;;;;;;4.67;3.40;;;9.30;99.90;;;;;;5053384;28;20450;-77
2021/10/08 06:38:35;;;;;;;4.33;3.80;;;9.40;99.90;;;;;;5052975;28;20451;-77
2021/10/08 06:41:21;;;;;;;5.47;3.80;;;9.40;99.90;;;;;;5031795;28;20419;-75
2021/10/08 06:44:07;;;;;;;9.10;4.10;;;9.50;99.90;;;;;;5050697;28;20434;-76
2021/10/08 06:46:52;;;;;;;9.00;4.00;;;9.60;99.90;;;;;;5040234;28;20474;-78
2021/10/08 06:49:38;;;;;;;6.07;5.03;;;9.70;99.90;;;;;;5046729;28;20839;-73
2021/10/08 06:52:26;;;;;;;4.87;3.90;;;9.80;99.90;;;;;;5049969;28;21011;-77
2021/10/08 06:55:12;;;;;;;7.20;4.30;;;10.00;99.90;;;;;;5056003;28;20597;-76
2021/10/08 06:57:57;;;;;;;6.30;5.20;;;10.10;99.90;;;;;;5042618;28;20484;-76
2021/10/08 07:00:43;;;;;;;5.93;3.77;;;10.20;99.90;;;;;;5040532;28;20454;-77
2021/10/08 07:03:28;;;;;;;7.60;4.40;;;10.40;99.90;;;;;;5042778;28;20991;-77
2021/10/08 07:06:14;;;;;;;5.40;4.20;;;10.50;99.90;;;;;;5044191;28;20612;-77
2021/10/08 07:09:02;;;;;;;6.97;5.23;;;10.60;99.90;;;;;;5046182;28;20445;-77
2021/10/08 07:11:47;;;;;;;7.47;5.53;;;10.80;99.90;;;;;;5045779;28;20469;-77
2021/10/08 07:14:33;;;;;;;6.53;4.53;;;11.00;99.90;;;;;;5046233;28;20451;-77
2021/10/08 07:17:19;;;;;;;5.40;4.50;;;11.20;99.90;;;;;;5031752;28;20602;-76
2021/10/08 07:20:05;;;;;;;5.03;4.33;;;11.40;99.90;;;;;;5040906;28;20536;-77
2021/10/08 07:22:52;;;;;;;6.73;4.73;;;11.60;99.90;;;;;;5047363;28;20675;-77
2021/10/08 07:25:40;;;;;;;6.33;4.13;;;11.70;99.90;;;;;;5043721;28;20443;-76
2021/10/08 07:28:25;;;;;;;7.30;4.03;;;11.90;99.90;;;;;;5045484;28;20461;-75
2021/10/08 07:31:11;;;;;;;10.83;4.80;;;11.90;99.90;;;;;;5052559;28;20457;-77
2021/10/08 07:33:57;;;;;;;5.67;4.17;;;12.10;99.90;;;;;;5055252;28;20998;-77
2021/10/08 07:36:42;;;;;;;6.97;4.80;;;12.20;99.90;;;;;;5051061;28;20480;-77
2021/10/08 07:39:28;;;;;;;5.63;4.20;;;12.20;99.90;;;;;;5054343;28;20426;-76
2021/10/08 07:42:15;;;;;;;5.90;4.10;;;12.30;99.90;;;;;;5054313;28;20434;-76
2021/10/08 07:45:00;;;;;;;8.10;3.70;;;12.40;99.90;;;;;;5054574;28;20816;-76
2021/10/08 07:47:46;;;;;;;4.37;3.67;;;12.50;99.90;;;;;;5054223;28;20458;-77
2021/10/08 07:50:31;;;;;;;6.20;3.80;;;12.50;99.90;;;;;;5054516;28;20444;-76
2021/10/08 07:53:17;;;;;;;8.17;4.83;;;12.60;99.90;;;;;;5039984;28;20475;-76
2021/10/08 07:56:03;;;;;;;5.10;4.20;;;12.70;99.90;;;;;;5053791;28;20930;-76
2021/10/08 07:58:51;;;;;;;7.83;4.10;;;12.80;99.90;;;;;;5050036;28;20513;-73
2021/10/08 08:01:36;;;;;;;5.80;4.17;;;12.90;99.90;;;;;;5045916;28;20447;-77
2021/10/08 08:04:22;;;;;;;5.30;3.90;;;13.00;99.90;;;;;;5046440;28;20442;-77
2021/10/08 08:07:08;;;;;;;4.03;3.63;;;13.00;99.90;;;;;;5052588;28;20576;-75
2021/10/08 08:09:53;;;;;;;5.50;3.93;;;13.10;99.90;;;;;;5050889;28;20423;-76
2021/10/08 08:12:39;;;;;;;10.37;5.00;;;13.10;99.90;;;;;;5048375;28;21012;-77
2021/10/08 08:15:26;;;;;;;8.40;4.13;;;13.00;99.90;;;;;;5033899;28;20789;-76
2021/10/08 08:18:12;;;;;;;5.40;3.63;;;13.10;99.90;;;;;;5045692;28;20451;-74
2021/10/08 08:20:57;;;;;;;5.10;3.83;;;13.20;99.90;;;;;;5053806;28;20565;-77
2021/10/08 08:23:43;;;;;;;11.23;4.00;;;13.20;99.90;;;;;;5052743;28;20450;-76
2021/10/08 08:26:29;;;;;;;7.63;4.20;;;13.30;99.90;;;;;;5053866;28;20567;-77
2021/10/08 08:29:14;;;;;;;5.50;3.87;;;13.40;99.90;;;;;;5052611;28;20438;-76
2021/10/08 08:32:01;;;;;;;9.77;4.03;;;13.50;99.90;;;;;;5033790;28;21292;-76
2021/10/08 08:34:47;;;;;;;7.10;3.77;;;13.60;99.90;;;;;;5033578;28;20411;-76
2021/10/08 08:37:33;;;;;;;12.50;5.30;;;13.70;99.90;;;;;;5049525;28;20846;-76
2021/10/08 08:40:19;;;;;;;4.60;3.50;;;13.70;99.90;;;;;;5050864;28;20983;-76
2021/10/08 08:43:04;;;;;;;4.80;3.40;;;13.80;99.90;;;;;;5040893;28;20973;-76
2021/10/08 08:45:50;;;;;;;12.20;3.43;;;13.90;99.90;;;;;;5050446;28;20431;-76
2021/10/08 08:48:37;;;;;;;10.80;3.00;;;14.10;99.90;;;;;;5051450;28;21255;-76
2021/10/08 08:51:25;;;;;;;9.03;3.10;;;14.20;99.90;;;;;;5053346;28;20474;-76
2021/10/08 08:54:11;;;;;;;5.43;3.60;;;14.30;99.90;;;;;;5053100;28;20674;-73
2021/10/08 08:56:56;;;;;;;5.90;3.33;;;14.40;99.90;;;;;;5052759;28;20998;-74
2021/10/08 09:00:07;;;;;;;7.43;3.10;;;14.40;99.90;;;;;;5051717;28;20424;-73
2021/10/08 09:02:58;;;;;;;5.40;3.90;;;14.60;99.90;;;;;;5046329;28;20520;-74
2021/10/08 09:05:48;;;;;;;6.27;3.67;;;14.70;99.90;;;;;;5048361;28;20936;-73
2021/10/08 09:08:35;;;;;;;4.93;3.60;;;14.90;99.90;;;;;;5048036;28;20581;-73
2021/10/08 09:11:21;;;;;;;4.20;2.90;;;15.00;99.90;;;;;;5051138;28;20489;-74
2021/10/08 09:14:18;;;;;;;3.83;2.67;;;15.10;99.90;;;;;;5048657;28;20938;-74
2021/10/08 09:17:21;;;;;;;5.10;3.13;;;15.20;99.90;;;;;;5047077;28;21027;-74
2021/10/08 09:20:08;;;;;;;4.87;3.60;;;15.40;99.90;;;;;;5044038;28;22485;-74
2021/10/08 09:22:56;;;;;;;3.70;3.10;;;15.50;99.90;;;;;;5043456;28;20451;-74
2021/10/08 09:25:41;;;;;;;3.30;2.93;;;15.60;99.90;;;;;;5050099;28;20450;-74
2021/10/08 09:28:27;;;;;;;7.80;3.30;;;15.70;99.90;;;;;;5046276;28;20423;-74
2021/10/08 09:31:12;;;;;;;6.37;2.83;;;15.80;99.90;;;;;;5051197;28;20451;-74
2021/10/08 09:34:11;;;;;;;5.73;3.00;;;15.80;99.90;;;;;;5040423;28;20458;-73
2021/10/08 09:36:59;;;;;;;4.00;3.37;;;16.00;99.90;;;;;;5051895;28;20426;-74
2021/10/08 09:39:51;;;;;;;7.33;3.70;;;16.00;99.90;;;;;;5051260;28;20468;-74
2021/10/08 09:42:39;;;;;;;4.13;3.50;;;16.10;99.90;;;;;;5046128;28;20507;-74
2021/10/08 09:45:43;;;;;;;5.40;3.90;;;16.10;99.90;;;;;;5045126;28;20422;-73
2021/10/08 09:48:41;;;;;;;5.10;3.60;;;16.00;99.90;;;;;;5048054;28;20451;-73
2021/10/08 09:51:31;;;;;;;11.73;3.93;;;15.90;99.90;;;;;;5043176;28;20444;-74
2021/10/08 09:54:17;;;;;;;8.20;3.97;;;15.70;99.90;;;;;;5044645;28;20529;-74
2021/10/08 09:57:04;;;;;;;4.53;3.57;;;15.60;99.90;;;;;;5047487;28;20466;-74
2021/10/08 09:59:51;;;;;;;7.60;4.10;;;15.40;99.90;;;;;;5041682;28;20581;-74
2021/10/08 10:02:36;;;;;;;4.80;3.70;;;15.30;99.90;;;;;;5041761;28;20831;-73
2021/10/08 10:05:25;;;;;;;7.43;3.83;;;15.20;99.90;;;;;;5046954;28;20478;-74
2021/10/08 10:08:12;;;;;;;4.80;3.90;;;15.10;99.90;;;;;;5089940;23;20571;-73
2021/10/08 10:10:58;;;;;;;5.30;4.03;;;15.10;99.90;;;;;;5076442;28;20824;-73
2021/10/08 10:13:46;;;;;;;10.40;3.87;;;14.90;99.90;;;;;;5086823;28;20468;-72
2021/10/08 10:16:33;;;;;;;7.53;4.37;;;14.90;99.90;;;;;;5084255;28;20549;-74
2021/10/08 10:19:19;;;;;;;5.20;4.13;;;14.90;99.90;;;;;;5091808;28;20439;-72
2021/10/08 10:22:05;;;;;;;5.40;4.30;;;14.80;99.90;;;;;;5095173;28;21050;-72
2021/10/08 10:24:52;;;;;;;5.00;3.67;;;14.80;99.90;;;;;;5110555;28;21012;-72
2021/10/08 10:27:39;;;;;;;6.83;3.70;;;14.90;99.90;;;;;;5112127;28;20459;-74
2021/10/08 10:30:27;;;;;;;8.23;4.13;;;14.80;99.90;;;;;;5110729;28;20452;-72
2021/10/08 10:33:16;;;;;;;4.40;4.00;;;14.90;99.90;;;;;;5092799;28;20466;-72
2021/10/08 10:36:01;;;;;;;5.67;3.83;;;14.90;99.90;;;;;;5112235;28;20486;-72
2021/10/08 10:38:47;;;;;;;6.00;4.57;;;14.90;99.90;;;;;;5104419;28;20492;-72
2021/10/08 10:41:32;;;;;;;5.63;4.00;;;15.00;99.90;;;;;;5110424;28;20497;-74
2021/10/08 10:44:21;;;;;;;6.30;4.00;;;15.10;99.90;;;;;;5106880;28;20437;-72
2021/10/08 10:47:17;;;;;;;7.40;4.37;;;15.30;99.90;;;;;;5094948;28;20472;-72
2021/10/08 10:50:14;;;;;;;5.80;4.20;;;15.60;99.90;;;;;;5110891;28;20520;-72
2021/10/08 10:53:00;;;;;;;4.80;4.10;;;16.10;99.90;;;;;;5100104;28;20453;-73
2021/10/08 10:55:46;;;;;;;6.43;4.60;;;16.30;99.90;;;;;;5104085;28;20458;-73
2021/10/08 10:58:31;;;;;;;6.33;4.03;;;16.60;99.90;;;;;;5105243;28;20424;-73
2021/10/08 11:01:20;;;;;;;6.97;4.50;;;16.80;99.90;;;;;;5103597;28;20418;-72
2021/10/08 11:04:26;;;;;;;6.83;4.30;;;17.00;99.90;;;;;;5108876;28;20445;-72
2021/10/08 11:07:13;;;;;;;9.40;5.33;;;17.00;99.90;;;;;;5108325;28;20470;-72
2021/10/08 11:10:21;;;;;;;6.47;4.00;;;16.90;99.90;;;;;;5109773;28;20461;-72
2021/10/08 11:13:28;;;;;;;5.43;3.83;;;16.80;99.90;;;;;;5104361;28;20551;-72
2021/10/08 11:16:28;;;;;;;9.90;4.50;;;16.60;99.90;;;;;;5091300;28;20420;-72
2021/10/08 11:19:40;;;;;;;7.10;5.00;;;16.60;99.90;;;;;;5100086;28;20442;-72
2021/10/08 11:22:44;;;;;;;6.30;4.27;;;16.60;99.90;;;;;;5101684;28;20486;-72
2021/10/08 11:25:31;;;;;;;7.40;4.87;;;16.70;99.90;;;;;;5104557;28;21022;-72
2021/10/08 11:28:17;;;;;;;9.63;5.90;;;16.90;99.90;;;;;;5109460;28;20815;-72
2021/10/08 11:31:05;;;;;;;5.57;4.93;;;17.10;99.90;;;;;;5107617;28;20465;-72
2021/10/08 11:33:54;;;;;;;8.90;5.47;;;17.30;99.90;;;;;;5105366;28;20466;-72
2021/10/08 11:36:41;;;;;;;9.20;6.47;;;17.40;99.90;;;;;;5108583;28;20862;-73
2021/10/08 11:39:28;;;;;;;8.53;5.80;;;17.50;99.90;;;;;;5102947;28;20634;-72
2021/10/08 11:42:14;;;;;;;6.93;5.27;;;17.60;99.90;;;;;;5102428;28;20535;-72
2021/10/08 11:45:03;;;;;;;10.40;6.47;;;17.50;99.90;;;;;;5103147;28;20493;-73
2021/10/08 11:47:51;;;;;;;13.37;6.17;;;17.40;99.90;;;;;;5109294;28;20436;-72
2021/10/08 11:50:51;;;;;;;11.10;6.43;;;17.50;99.90;;;;;;5103977;28;20519;-73
2021/10/08 11:53:42;;;;;;;8.87;7.50;;;17.60;99.90;;;;;;5106206;28;20515;-72
2021/10/08 11:56:30;;;;;;;8.77;5.93;;;17.70;99.90;;;;;;5106209;28;20501;-72
2021/10/08 11:59:16;;;;;;;9.53;6.13;;;17.80;99.90;;;;;;5102686;28;20387;-72
2021/10/08 12:02:13;;;;;;;7.50;6.00;;;17.80;99.90;;;;;;5109460;28;20532;-72
2021/10/08 12:05:00;;;;;;;7.97;5.90;;;17.60;99.90;;;;;;5100028;28;20441;-74
2021/10/08 12:07:57;;;;;;;7.70;6.20;;;17.50;99.90;;;;;;5098613;28;20554;-74
2021/10/08 12:10:59;;;;;;;9.33;6.30;;;17.30;99.90;;;;;;5106334;28;20531;-76
2021/10/08 12:13:48;;;;;;;8.70;7.03;;;17.20;99.90;;;;;;5110720;28;20996;-73
2021/10/08 12:16:42;;;;;;;14.90;7.70;;;17.30;99.90;;;;;;5114513;28;20576;-73
2021/10/08 12:19:30;;;;;;;10.47;7.90;;;17.20;99.90;;;;;;5114452;28;20421;-74
2021/10/08 12:22:23;;;;;;;8.70;7.43;;;17.10;99.90;;;;;;5114481;28;20421;-75
2021/10/08 12:25:10;;;;;;;9.13;6.53;;;16.90;99.90;;;;;;5109696;28;20457;-75
2021/10/08 12:27:58;;;;;;;9.90;6.70;;;16.80;99.90;;;;;;5108718;28;20488;-74
2021/10/08 12:30:54;;;;;;;10.87;7.73;;;16.80;99.90;;;;;;5114673;28;20469;-74
2021/10/08 12:33:43;;;;;;;10.80;7.37;;;16.90;99.90;;;;;;5104142;28;20615;-74
2021/10/08 12:36:30;;;;;;;9.10;7.13;;;16.90;99.90;;;;;;5108034;27;20801;-74
2021/10/08 12:39:18;;;;;;;15.23;7.33;;;16.90;99.90;;;;;;5112196;28;20886;-75
2021/10/08 12:42:16;;;;;;;7.70;6.53;;;16.90;99.90;;;;;;5110902;28;20587;-74
2021/10/08 12:45:06;;;;;;;10.43;6.70;;;17.10;99.90;;;;;;5112664;28;20479;-74
2021/10/08 12:47:52;;;;;;;8.40;7.20;;;17.10;99.90;;;;;;5109683;28;20797;-74
2021/10/08 12:50:38;;;;;;;11.00;8.20;;;17.10;99.90;;;;;;5109005;28;20425;-75
2021/10/08 12:53:26;;;;;;;11.10;7.40;;;16.90;99.90;;;;;;5099131;28;20476;-75
2021/10/08 12:56:21;;;;;;;10.03;7.57;;;16.90;99.90;;;;;;5111263;28;20437;-75
2021/10/08 12:59:07;;;;;;;10.83;7.10;;;16.70;99.90;;;;;;5113646;28;20757;-74
2021/10/08 13:01:57;;;;;;;17.37;7.77;;;16.60;99.90;;;;;;5106842;28;20574;-75
2021/10/08 13:04:43;;;;;;;13.30;8.10;;;16.80;99.90;;;;;;5107223;28;20501;-75
2021/10/08 13:07:29;;;;;;;11.50;8.43;;;17.10;99.90;;;;;;5108760;27;20666;-74
2021/10/08 13:10:19;;;;;;;11.30;8.10;;;17.60;99.90;;;;;;5105947;28;21001;-74
2021/10/08 13:13:04;;;;;;;13.03;8.17;;;17.90;99.90;;;;;;5109811;28;20960;-75
2021/10/08 13:15:50;;;;;;;10.70;8.23;;;18.20;99.90;;;;;;5110407;28;20417;-74
2021/10/08 13:18:42;;;;;;;9.10;7.77;;;18.40;99.90;;;;;;5113178;28;20504;-74
2021/10/08 13:21:29;;;;;;;11.27;8.07;;;18.30;99.90;;;;;;5113180;28;20415;-76
2021/10/08 13:24:15;;;;;;;8.57;6.97;;;18.10;99.90;;;;;;5112919;28;20449;-73
2021/10/08 13:27:01;;;;;;;10.73;8.30;;;18.00;99.90;;;;;;5111284;28;20448;-73
2021/10/08 13:29:47;;;;;;;9.80;7.27;;;17.80;99.90;;;;;;5110354;28;20441;-74
2021/10/08 13:32:33;;;;;;;10.00;8.57;;;17.60;99.90;;;;;;5110895;28;20433;-74
2021/10/08 13:35:20;;;;;;;9.90;7.73;;;17.50;99.90;;;;;;5110976;28;20559;-74
2021/10/08 13:38:07;;;;;;;12.80;8.50;;;17.70;99.90;;;;;;5103903;28;20458;-75
2021/10/08 13:40:53;;;;;;;8.90;7.70;;;18.00;99.90;;;;;;5111439;28;20451;-75
2021/10/08 13:43:38;;;;;;;11.53;8.20;;;18.30;99.90;;;;;;5112962;28;20393;-74
2021/10/08 13:46:24;;;;;;;10.63;7.77;;;18.30;99.90;;;;;;5093384;28;20491;-74
2021/10/08 13:49:10;;;;;;;11.77;8.87;;;18.30;99.90;;;;;;5099699;28;20458;-74
2021/10/08 13:51:57;;;;;;;10.83;8.80;;;18.40;99.90;;;;;;5104796;28;20449;-73
2021/10/08 13:54:45;;;;;;;11.87;7.70;;;18.30;99.90;;;;;;5101577;28;20433;-73
2021/10/08 13:57:30;;;;;;;11.63;8.50;;;18.20;99.90;;;;;;5107033;28;20432;-72
2021/10/08 14:00:18;;;;;;;12.67;8.70;;;18.10;99.90;;;;;;5098565;28;20500;-71
2021/10/08 14:03:17;;;;;;;12.80;8.07;;;18.20;99.90;;;;;;5103456;28;20462;-73
2021/10/08 14:09:16;;;;;;;13.33;7.70;;;18.70;99.90;;;;;;5107899;28;20779;-72
2021/10/08 14:12:02;;;;;;;11.37;8.20;;;18.80;99.90;;;;;;5100918;28;20425;-73
2021/10/08 14:14:47;;;;;;;11.53;8.97;;;19.00;99.10;;;;;;5104348;28;20456;-72
2021/10/08 14:17:33;;;;;;;10.20;7.93;;;19.30;97.40;;;;;;5110717;28;20985;-72
2021/10/08 14:20:19;;;;;;;11.30;8.03;;;19.60;94.70;;;;;;5104340;28;20676;-74
2021/10/08 14:23:05;;;;;;;9.47;7.77;;;19.80;92.50;;;;;;5108530;28;20600;-73
2021/10/08 14:25:52;;;;;;;10.47;8.63;;;19.90;91.60;;;;;;5112144;28;20437;-74
2021/10/08 14:28:38;;;;;;;10.17;7.80;;;20.20;89.70;;;;;;5103855;28;20521;-73
2021/10/08 14:31:23;;;;;;;12.10;8.77;;;20.40;85.00;;;;;;5104945;28;20411;-73
2021/10/08 14:34:09;;;;;;;9.43;7.60;;;20.50;82.50;;;;;;5108081;28;20470;-74
2021/10/08 14:36:54;;;;;;;11.03;8.40;;;20.50;81.20;;;;;;5106176;28;20470;-72
2021/10/08 14:39:40;;;;;;;11.50;8.70;;;20.50;77.50;;;;;;5111517;28;20430;-71